createdAt,value
2019-02-27T19:03:28.301Z,14.87
2019-02-27T19:04:01.422Z,16.10
2019-02-27T19:04:35.299Z,15.50
2019-02-27T19:05:08.675Z,16.00
2019-02-27T19:05:42.063Z,15.30
2019-02-27T19:06:14.852Z,16.57
2019-02-27T19:06:47.797Z,15.50
2019-02-27T19:07:22.886Z,17.62
2019-02-27T19:07:55.845Z,17.30
2019-02-27T19:08:28.807Z,16.40
2019-02-27T19:09:01.336Z,17.82
2019-02-27T19:09:33.816Z,16.52
2019-02-27T19:10:07.563Z,16.00
2019-02-27T19:10:42.488Z,16.48
2019-02-27T19:11:16.004Z,16.90
2019-02-27T19:11:50.903Z,16.40
2019-02-27T19:12:28.368Z,16.97
2019-02-27T19:12:59.929Z,18.20
2019-02-27T19:13:32.434Z,17.07
2019-02-27T19:14:05.812Z,17.05
2019-02-27T19:14:39.607Z,18.60
2019-02-27T19:15:14.956Z,17.15
2019-02-27T19:15:47.419Z,19.42
2019-02-27T19:16:20.751Z,17.55
2019-02-27T19:16:54.902Z,18.50
2019-02-27T19:17:31.524Z,18.17
2019-02-27T19:18:03.756Z,18.10
2019-02-27T19:18:38.515Z,18.60
2019-02-27T19:19:13.818Z,18.55
2019-02-27T19:19:48.185Z,18.85
2019-02-27T19:20:24.879Z,17.75
2019-02-27T19:20:59.304Z,18.00
2019-02-27T19:21:33.561Z,18.10
2019-02-27T19:22:07.996Z,19.07
2019-02-27T19:22:42.892Z,18.75
2019-02-27T19:23:17.705Z,16.32
2019-02-27T19:23:52.705Z,16.42
2019-02-27T19:24:27.532Z,16.25
2019-02-27T19:25:00.182Z,16.65
2019-02-27T19:25:34.651Z,15.93
2019-02-27T19:26:09.375Z,15.23
2019-02-27T19:26:44.173Z,14.25
2019-02-27T19:27:18.249Z,17.40
2019-02-27T19:27:50.931Z,15.25
2019-02-27T19:28:24.839Z,14.83
2019-02-27T19:28:59.561Z,13.70
2019-02-27T19:29:32.813Z,14.60
2019-02-27T19:30:07.426Z,15.20
2019-02-27T19:30:41.784Z,14.03
2019-02-27T19:31:16.637Z,13.25
2019-02-27T19:31:51.654Z,14.63
2019-02-27T19:32:24.203Z,13.75
2019-02-27T19:33:01.598Z,15.35
2019-02-27T19:33:32.520Z,15.30
2019-02-27T19:34:07.357Z,14.25
2019-02-27T19:34:41.449Z,14.15
2019-02-27T19:35:15.180Z,13.28
2019-02-27T19:35:47.694Z,14.15
2019-02-27T19:36:20.221Z,14.98
2019-02-27T19:36:52.699Z,14.87
2019-02-27T19:37:25.175Z,14.10
2019-02-27T19:37:57.667Z,14.05
2019-02-27T19:38:30.147Z,13.58
2019-02-27T19:39:04.747Z,14.40
2019-02-27T19:39:37.494Z,13.98
2019-02-27T19:40:12.301Z,15.08
2019-02-27T19:40:44.780Z,14.38
2019-02-27T19:41:17.278Z,12.45
2019-02-27T19:41:50.420Z,13.32
2019-02-27T19:42:22.904Z,14.85
2019-02-27T19:42:57.107Z,13.70
2019-02-27T19:43:29.972Z,13.62
2019-02-27T19:44:02.453Z,13.62
2019-02-27T19:44:34.936Z,14.35
2019-02-27T19:45:07.455Z,13.60
2019-02-27T19:45:39.984Z,13.68
2019-02-27T19:46:12.736Z,12.60
2019-02-27T19:46:47.447Z,15.00
2019-02-27T19:47:19.658Z,14.05
2019-02-27T19:47:54.620Z,14.15
2019-02-27T19:48:28.933Z,14.87
2019-02-27T19:49:03.578Z,14.30
2019-02-27T19:49:36.612Z,13.80
2019-02-27T19:50:11.211Z,14.33
2019-02-27T19:50:46.293Z,14.38
2019-02-27T19:51:20.229Z,12.73
2019-02-27T19:51:54.917Z,13.83
2019-02-27T19:52:29.620Z,12.82
2019-02-27T19:53:05.214Z,14.20
2019-02-27T19:53:39.402Z,14.00
2019-02-27T19:54:11.521Z,13.15
2019-02-27T19:54:45.006Z,14.00
2019-02-27T19:55:17.607Z,12.88
2019-02-27T19:55:50.107Z,14.03
2019-02-27T19:56:22.859Z,13.45
2019-02-27T19:56:55.346Z,12.93
2019-02-27T19:57:28.350Z,12.50
2019-02-27T19:58:00.828Z,13.20
2019-02-27T19:58:33.312Z,13.15
2019-02-27T19:59:05.803Z,14.80
2019-02-27T19:59:47.096Z,13.25
2019-02-27T20:00:25.193Z,13.53
2019-02-27T20:00:57.889Z,12.75
2019-02-27T20:01:31.131Z,13.05
2019-02-27T20:02:09.654Z,12.75
2019-02-27T20:02:46.689Z,13.68
2019-02-27T20:03:19.824Z,13.18
2019-02-27T20:03:52.304Z,12.80
2019-02-27T20:04:24.823Z,12.28
2019-02-27T20:04:57.299Z,14.13
2019-02-27T20:05:29.916Z,12.35
2019-02-27T20:06:02.396Z,13.18
2019-02-27T20:06:35.223Z,13.30
2019-02-27T20:07:08.885Z,13.45
2019-02-27T20:07:41.379Z,14.30
2019-02-27T20:08:13.864Z,13.32
2019-02-27T20:08:46.336Z,14.00
2019-02-27T20:09:20.079Z,13.58
2019-02-27T20:09:54.547Z,13.40
2019-02-27T20:10:30.194Z,12.60
2019-02-27T20:11:05.989Z,12.20
2019-02-27T20:11:40.048Z,14.03
2019-02-27T20:12:12.772Z,13.83
2019-02-27T20:12:47.813Z,12.78
2019-02-27T20:13:24.720Z,13.48
2019-02-27T20:14:02.450Z,12.80
2019-02-27T20:14:36.630Z,13.38
2019-02-27T20:15:11.039Z,13.72
2019-02-27T20:15:45.680Z,13.25
2019-02-27T20:16:21.708Z,12.20
2019-02-27T20:16:56.017Z,12.90
2019-02-27T20:17:32.801Z,13.40
2019-02-27T20:18:07.810Z,12.03
2019-02-27T20:18:40.617Z,11.95
2019-02-27T20:19:12.157Z,13.28
2019-02-27T20:19:47.305Z,12.35
2019-02-27T20:20:21.808Z,11.90
2019-02-27T20:20:54.702Z,12.13
2019-02-27T20:21:27.418Z,12.60
2019-02-27T20:22:00.214Z,11.70
2019-02-27T20:22:32.699Z,11.43
2019-02-27T20:23:05.407Z,11.83
2019-02-27T20:23:37.978Z,11.73
2019-02-27T20:24:14.513Z,12.93
2019-02-27T20:24:44.756Z,12.85
2019-02-27T20:25:18.103Z,12.07
2019-02-27T20:25:50.685Z,12.13
2019-02-27T20:26:24.650Z,12.25
2019-02-27T20:26:57.518Z,12.53
2019-02-27T20:27:30.010Z,12.13
2019-02-27T20:28:02.586Z,11.22
2019-02-27T20:28:35.200Z,12.40
2019-02-27T20:29:07.763Z,11.60
2019-02-27T20:29:40.877Z,11.30
2019-02-27T20:30:15.892Z,11.57
2019-02-27T20:30:48.397Z,11.43
2019-02-27T20:31:21.179Z,10.68
2019-02-27T20:31:59.238Z,12.55
2019-02-27T20:32:32.249Z,12.37
2019-02-27T20:33:04.978Z,12.03
2019-02-27T20:33:38.019Z,11.48
2019-02-27T20:34:11.591Z,11.70
2019-02-27T20:34:45.940Z,11.50
2019-02-27T20:35:20.812Z,12.25
2019-02-27T20:35:55.814Z,12.98
2019-02-27T20:36:32.413Z,11.60
2019-02-27T20:37:03.240Z,12.53
2019-02-27T20:37:37.134Z,13.43
2019-02-27T20:38:15.381Z,12.35
2019-02-27T20:38:47.481Z,12.23
2019-02-27T20:39:23.163Z,12.35
2019-02-27T20:39:58.357Z,11.25
2019-02-27T20:40:33.698Z,12.05
2019-02-27T20:41:06.099Z,11.65
2019-02-27T20:41:43.184Z,13.55
2019-02-27T20:42:16.382Z,12.45
2019-02-27T20:42:50.381Z,12.68
2019-02-27T20:43:29.002Z,13.00
2019-02-27T20:44:00.345Z,11.83
2019-02-27T20:44:33.975Z,11.78
2019-02-27T20:45:09.489Z,12.90
2019-02-27T20:45:42.934Z,12.78
2019-02-27T20:46:16.023Z,12.53
2019-02-27T20:46:49.377Z,11.88
2019-02-27T20:47:22.678Z,11.57
2019-02-27T20:48:00.526Z,12.30
2019-02-27T20:48:32.167Z,12.90
2019-02-27T20:49:05.408Z,12.10
2019-02-27T20:49:37.877Z,11.55
2019-02-27T20:50:13.902Z,12.03
2019-02-27T20:50:46.366Z,12.85
2019-02-27T20:51:18.848Z,11.25
2019-02-27T20:51:51.336Z,11.50
2019-02-27T20:52:23.806Z,11.93
2019-02-27T20:52:56.755Z,12.28
2019-02-27T20:53:29.293Z,12.03
2019-02-27T20:54:02.696Z,12.98
2019-02-27T20:54:35.295Z,11.90
2019-02-27T20:55:07.780Z,12.13
2019-02-27T20:55:40.346Z,10.80
2019-02-27T20:56:12.832Z,11.88
2019-02-27T20:56:45.489Z,10.95
2019-02-27T20:57:19.732Z,12.07
2019-02-27T20:57:52.302Z,10.85
2019-02-27T20:58:25.111Z,11.88
2019-02-27T20:58:58.153Z,11.55
2019-02-27T20:59:30.654Z,12.55
2019-02-27T21:00:03.972Z,11.25
2019-02-27T21:00:37.290Z,13.08
2019-02-27T21:01:10.795Z,11.85
2019-02-27T21:01:47.214Z,10.48
2019-02-27T21:02:19.675Z,11.40
2019-02-27T21:02:54.121Z,11.35
2019-02-27T21:03:27.970Z,11.12
2019-02-27T21:04:02.340Z,11.08
2019-02-27T21:04:35.243Z,11.53
2019-02-27T21:05:09.501Z,11.18
2019-02-27T21:05:42.990Z,11.43
2019-02-27T21:06:15.458Z,11.45
2019-02-27T21:06:48.546Z,10.75
2019-02-27T21:07:22.435Z,10.58
2019-02-27T21:08:00.911Z,12.10
2019-02-27T21:08:29.773Z,11.20
2019-02-27T21:09:02.459Z,11.10
2019-02-27T21:09:35.045Z,11.70
2019-02-27T21:10:10.614Z,12.15
2019-02-27T21:10:43.560Z,11.70
2019-02-27T21:11:16.045Z,10.58
2019-02-27T21:11:48.490Z,12.18
2019-02-27T21:12:21.349Z,10.88
2019-02-27T21:12:54.558Z,10.90
2019-02-27T21:13:27.076Z,11.12
2019-02-27T21:13:59.550Z,11.48
2019-02-27T21:14:32.038Z,10.65
2019-02-27T21:15:04.754Z,12.03
2019-02-27T21:15:37.620Z,11.33
2019-02-27T21:16:10.282Z,10.80
2019-02-27T21:16:45.712Z,11.60
2019-02-27T21:17:20.909Z,11.10
2019-02-27T21:17:57.751Z,12.15
2019-02-27T21:18:29.080Z,10.63
2019-02-27T21:19:02.503Z,11.08
2019-02-27T21:19:37.281Z,11.22
2019-02-27T21:20:11.922Z,10.60
2019-02-27T21:20:45.231Z,10.98
2019-02-27T21:21:19.807Z,12.35
2019-02-27T21:21:54.475Z,12.35
2019-02-27T21:22:27.788Z,12.00
2019-02-27T21:23:01.372Z,11.30
2019-02-27T21:23:33.866Z,10.32
2019-02-27T21:24:06.567Z,11.55
2019-02-27T21:24:40.502Z,11.38
2019-02-27T21:25:14.887Z,10.45
2019-02-27T21:25:49.302Z,10.75
2019-02-27T21:26:22.885Z,10.50
2019-02-27T21:26:57.252Z,9.80
2019-02-27T21:27:32.978Z,12.05
2019-02-27T21:28:07.606Z,10.95
2019-02-27T21:28:38.934Z,10.98
2019-02-27T21:29:11.398Z,10.32
2019-02-27T21:29:44.510Z,11.88
2019-02-27T21:30:18.860Z,11.45
2019-02-27T21:30:52.392Z,11.68
2019-02-27T21:31:27.545Z,10.82
2019-02-27T21:32:01.510Z,10.40
2019-02-27T21:32:36.174Z,10.20
2019-02-27T21:33:11.131Z,10.85
2019-02-27T21:33:45.696Z,11.68
2019-02-27T21:34:20.060Z,10.58
2019-02-27T21:34:52.471Z,9.88
2019-02-27T21:35:29.803Z,12.15
2019-02-27T21:36:03.434Z,12.33
2019-02-27T21:36:36.637Z,10.38
2019-02-27T21:37:10.124Z,12.05
2019-02-27T21:37:45.603Z,11.03
2019-02-27T21:38:17.469Z,12.37
2019-02-27T21:38:51.450Z,10.50
2019-02-27T21:39:25.261Z,11.35
2019-02-27T21:40:01.999Z,11.65
2019-02-27T21:40:33.449Z,10.80
2019-02-27T21:41:11.481Z,11.68
2019-02-27T21:41:42.254Z,10.90
2019-02-27T21:42:18.407Z,11.20
2019-02-27T21:42:51.204Z,10.65
2019-02-27T21:43:25.730Z,11.55
2019-02-27T21:43:59.000Z,10.53
2019-02-27T21:44:31.458Z,10.60
2019-02-27T21:45:04.963Z,10.85
2019-02-27T21:45:38.303Z,10.55
2019-02-27T21:46:11.764Z,10.53
2019-02-27T21:46:47.164Z,9.30
2019-02-27T21:47:20.139Z,9.25
2019-02-27T21:47:53.062Z,10.08
2019-02-27T21:48:26.767Z,9.48
2019-02-27T21:49:01.004Z,9.75
2019-02-27T21:49:33.470Z,9.55
2019-02-27T21:50:07.387Z,9.70
2019-02-27T21:50:40.598Z,9.58
2019-02-27T21:51:13.790Z,10.78
2019-02-27T21:51:48.213Z,10.25
2019-02-27T21:52:22.397Z,10.63
2019-02-27T21:52:55.851Z,10.15
2019-02-27T21:53:29.568Z,11.28
2019-02-27T21:54:03.802Z,11.15
2019-02-27T21:54:39.242Z,8.90
2019-02-27T21:55:13.001Z,9.73
2019-02-27T21:55:45.483Z,9.60
2019-02-27T21:56:18.851Z,9.90
2019-02-27T21:56:51.807Z,9.93
2019-02-27T21:57:25.559Z,9.45
2019-02-27T21:57:58.950Z,10.00
2019-02-27T21:58:32.776Z,8.95
2019-02-27T21:59:05.818Z,10.00
2019-02-27T21:59:39.912Z,9.50
2019-02-27T22:00:15.590Z,10.78
2019-02-27T22:00:48.958Z,8.95
2019-02-27T22:01:22.044Z,8.23
2019-02-27T22:01:56.311Z,8.58
2019-02-27T22:02:30.107Z,8.50
2019-02-27T22:03:04.912Z,9.68
2019-02-27T22:03:38.417Z,8.95
2019-02-27T22:04:11.914Z,8.88
2019-02-27T22:04:44.752Z,8.55
2019-02-27T22:05:18.902Z,7.85
2019-02-27T22:05:52.996Z,8.95
2019-02-27T22:06:27.526Z,8.50
2019-02-27T22:07:00.631Z,9.40
2019-02-27T22:07:34.067Z,8.30
2019-02-27T22:08:06.597Z,10.43
2019-02-27T22:08:39.553Z,9.13
2019-02-27T22:09:17.340Z,8.90
2019-02-27T22:09:49.898Z,8.85
2019-02-27T22:10:24.409Z,8.88
2019-02-27T22:10:56.919Z,8.63
2019-02-27T22:11:30.097Z,8.90
2019-02-27T22:12:02.631Z,9.28
2019-02-27T22:12:35.269Z,8.95
2019-02-27T22:13:10.520Z,7.97
2019-02-27T22:13:45.399Z,9.23
2019-02-27T22:14:17.772Z,7.97
2019-02-27T22:14:50.583Z,8.40
2019-02-27T22:15:25.136Z,8.70
2019-02-27T22:15:57.638Z,9.73
2019-02-27T22:16:30.625Z,8.75
2019-02-27T22:17:05.035Z,8.93
2019-02-27T22:17:37.630Z,8.78
2019-02-27T22:18:11.809Z,8.93
2019-02-27T22:18:47.012Z,9.10
2019-02-27T22:19:19.207Z,9.30
2019-02-27T22:19:53.829Z,8.98
2019-02-27T22:20:27.461Z,9.15
2019-02-27T22:21:00.408Z,8.80
2019-02-27T22:21:34.161Z,9.35
2019-02-27T22:22:08.122Z,8.10
2019-02-27T22:22:42.331Z,9.33
2019-02-27T22:23:16.043Z,8.03
2019-02-27T22:23:48.503Z,8.83
2019-02-27T22:24:21.532Z,8.33
2019-02-27T22:24:55.695Z,9.43
2019-02-27T22:25:31.123Z,9.30
2019-02-27T22:26:03.467Z,9.20
2019-02-27T22:26:37.565Z,7.55
2019-02-27T22:27:12.844Z,8.10
2019-02-27T22:27:45.935Z,8.65
2019-02-27T22:28:20.691Z,8.18
2019-02-27T22:28:54.376Z,7.95
2019-02-27T22:29:27.920Z,8.78
2019-02-27T22:30:01.125Z,8.80
2019-02-27T22:30:34.022Z,9.65
2019-02-27T22:31:07.736Z,9.05
2019-02-27T22:31:41.265Z,9.55
2019-02-27T22:32:14.658Z,9.13
2019-02-27T22:32:48.797Z,9.00
2019-02-27T22:33:22.966Z,7.90
2019-02-27T22:33:56.207Z,9.45
2019-02-27T22:34:29.497Z,7.97
2019-02-27T22:35:02.492Z,8.40
2019-02-27T22:35:37.841Z,8.08
2019-02-27T22:36:12.784Z,9.75
2019-02-27T22:36:45.110Z,9.08
2019-02-27T22:37:18.570Z,9.38
2019-02-27T22:37:52.601Z,9.25
2019-02-27T22:38:26.592Z,9.63
2019-02-27T22:39:00.280Z,8.43
2019-02-27T22:39:33.739Z,8.80
2019-02-27T22:40:07.793Z,8.83
2019-02-27T22:40:40.643Z,8.90
2019-02-27T22:41:13.908Z,8.95
2019-02-27T22:41:46.766Z,8.88
2019-02-27T22:42:19.259Z,8.40
2019-02-27T22:42:51.779Z,9.05
2019-02-27T22:43:24.659Z,8.33
2019-02-27T22:43:57.134Z,7.80
2019-02-27T22:44:30.006Z,8.43
2019-02-27T22:45:04.206Z,9.05
2019-02-27T22:45:40.581Z,8.30
2019-02-27T22:46:13.694Z,7.70
2019-02-27T22:46:47.812Z,9.58
2019-02-27T22:47:21.677Z,8.08
2019-02-27T22:47:54.767Z,9.20
2019-02-27T22:48:28.710Z,8.88
2019-02-27T22:49:01.265Z,9.30
2019-02-27T22:49:33.714Z,8.80
2019-02-27T22:50:07.091Z,8.53
2019-02-27T22:50:41.192Z,9.35
2019-02-27T22:51:14.234Z,8.80
2019-02-27T22:51:48.352Z,9.10
2019-02-27T22:52:21.018Z,9.20
2019-02-27T22:52:54.626Z,9.13
2019-02-27T22:53:28.753Z,9.70
2019-02-27T22:54:02.381Z,7.83
2019-02-27T22:54:35.998Z,8.35
2019-02-27T22:55:10.787Z,8.68
2019-02-27T22:55:43.393Z,9.60
2019-02-27T22:56:17.048Z,8.95
2019-02-27T22:56:51.588Z,8.15
2019-02-27T22:57:24.004Z,8.98
2019-02-27T22:57:56.745Z,8.70
2019-02-27T22:58:29.240Z,9.08
2019-02-27T22:59:03.024Z,8.90
2019-02-27T22:59:37.431Z,9.13
2019-02-27T23:00:28.924Z,9.40
2019-02-27T23:01:11.137Z,8.63
2019-02-27T23:01:50.881Z,8.60
2019-02-27T23:02:24.313Z,8.90
2019-02-27T23:02:57.411Z,8.35
2019-02-27T23:03:32.600Z,8.05
2019-02-27T23:04:09.026Z,7.70
2019-02-27T23:04:41.543Z,8.00
2019-02-27T23:05:14.661Z,8.43
2019-02-27T23:05:47.236Z,8.78
2019-02-27T23:06:19.993Z,7.78
2019-02-27T23:06:52.880Z,8.75
2019-02-27T23:07:25.379Z,8.33
2019-02-27T23:07:58.314Z,8.70
2019-02-27T23:08:30.769Z,8.23
2019-02-27T23:09:07.819Z,8.13
2019-02-27T23:09:40.294Z,8.28
2019-02-27T23:10:12.802Z,8.73
2019-02-27T23:10:45.419Z,7.97
2019-02-27T23:11:18.103Z,8.25
2019-02-27T23:11:50.782Z,8.80
2019-02-27T23:12:23.369Z,9.05
2019-02-27T23:12:55.848Z,7.78
2019-02-27T23:13:28.342Z,8.95
2019-02-27T23:14:00.828Z,8.00
2019-02-27T23:14:33.298Z,8.28
2019-02-27T23:15:05.982Z,8.90
2019-02-27T23:15:38.911Z,8.70
2019-02-27T23:16:13.703Z,7.22
2019-02-27T23:16:46.856Z,8.60
2019-02-27T23:17:19.325Z,7.40
2019-02-27T23:17:51.819Z,7.75
2019-02-27T23:18:24.684Z,7.83
2019-02-27T23:18:57.152Z,8.43
2019-02-27T23:19:29.902Z,9.05
2019-02-27T23:20:02.503Z,8.33
2019-02-27T23:20:35.323Z,8.53
2019-02-27T23:21:08.633Z,7.70
2019-02-27T23:21:41.490Z,8.73
2019-02-27T23:22:14.566Z,8.18
2019-02-27T23:22:47.058Z,8.13
2019-02-27T23:23:19.533Z,8.13
2019-02-27T23:23:52.006Z,8.50
2019-02-27T23:24:24.826Z,7.90
2019-02-27T23:24:57.396Z,8.45
2019-02-27T23:25:30.230Z,8.30
2019-02-27T23:26:03.013Z,7.80
2019-02-27T23:26:35.586Z,8.05
2019-02-27T23:27:08.054Z,8.10
2019-02-27T23:27:40.924Z,8.05
2019-02-27T23:28:13.383Z,7.90
2019-02-27T23:28:45.866Z,8.20
2019-02-27T23:29:18.355Z,8.20
2019-02-27T23:29:50.853Z,8.83
2019-02-27T23:30:23.323Z,8.65
2019-02-27T23:30:55.829Z,8.08
2019-02-27T23:31:28.339Z,7.72
2019-02-27T23:32:00.846Z,8.75
2019-02-27T23:32:33.633Z,7.97
2019-02-27T23:33:06.112Z,7.78
2019-02-27T23:33:38.573Z,7.40
2019-02-27T23:34:11.057Z,7.72
2019-02-27T23:34:43.530Z,7.80
2019-02-27T23:35:16.884Z,7.55
2019-02-27T23:35:50.178Z,6.92
2019-02-27T23:36:23.338Z,8.50
2019-02-27T23:36:56.469Z,7.90
2019-02-27T23:37:29.682Z,7.47
2019-02-27T23:38:03.928Z,9.00
2019-02-27T23:38:36.585Z,7.67
2019-02-27T23:39:09.512Z,7.95
2019-02-27T23:39:42.883Z,7.28
2019-02-27T23:40:17.533Z,7.05
2019-02-27T23:40:50.651Z,7.35
2019-02-27T23:41:23.848Z,8.08
2019-02-27T23:41:57.198Z,6.90
2019-02-27T23:42:29.780Z,8.38
2019-02-27T23:43:03.313Z,8.48
2019-02-27T23:43:36.426Z,8.43
2019-02-27T23:44:09.342Z,8.40
2019-02-27T23:44:41.814Z,8.65
2019-02-27T23:45:14.304Z,7.83
2019-02-27T23:45:47.073Z,7.35
2019-02-27T23:46:19.567Z,8.30
2019-02-27T23:46:57.121Z,7.22
2019-02-27T23:47:28.731Z,9.10
2019-02-27T23:48:02.252Z,7.92
2019-02-27T23:48:36.126Z,8.45
2019-02-27T23:49:09.234Z,8.68
2019-02-27T23:49:42.399Z,8.18
2019-02-27T23:50:15.269Z,8.78
2019-02-27T23:50:47.777Z,7.80
2019-02-27T23:51:20.405Z,7.70
2019-02-27T23:51:52.907Z,7.85
2019-02-27T23:52:26.135Z,7.90
2019-02-27T23:52:58.655Z,8.40
2019-02-27T23:53:31.423Z,8.20
2019-02-27T23:54:04.000Z,8.28
2019-02-27T23:54:36.637Z,7.85
2019-02-27T23:55:10.129Z,6.55
2019-02-27T23:55:44.635Z,8.50
2019-02-27T23:56:20.330Z,7.45
2019-02-27T23:56:52.994Z,7.53
2019-02-27T23:57:25.560Z,7.37
2019-02-27T23:57:58.577Z,7.70
2019-02-27T23:58:31.496Z,7.62
2019-02-27T23:59:03.961Z,7.03
2019-02-27T23:59:36.475Z,8.98
